createdAt,value
2022-11-22T00:01:12.782Z,7.18
2022-11-22T00:03:40.740Z,6.45
2022-11-22T00:06:08.716Z,4.57
2022-11-22T00:08:36.668Z,3.80
2022-11-22T00:11:06.039Z,4.75
2022-11-22T00:13:34.424Z,4.72
2022-11-22T00:16:04.254Z,3.75
2022-11-22T00:18:32.593Z,4.13
2022-11-22T00:21:06.422Z,4.32
2022-11-22T00:23:34.600Z,4.05
2022-11-22T00:26:02.519Z,3.60
2022-11-22T00:28:31.854Z,3.20
2022-11-22T00:30:59.796Z,3.90
2022-11-22T00:33:27.723Z,3.80
2022-11-22T00:35:55.765Z,4.40
2022-11-22T00:38:23.782Z,3.30
2022-11-22T00:40:51.907Z,4.57
2022-11-22T00:43:19.860Z,4.97
2022-11-22T00:45:49.135Z,5.50
2022-11-22T00:48:17.074Z,5.30
2022-11-22T00:50:45.153Z,7.32
2022-11-22T00:53:13.239Z,16.27
2022-11-22T00:55:41.130Z,11.30
2022-11-22T00:58:09.245Z,6.25
2022-11-22T01:00:37.326Z,4.10
2022-11-22T01:03:07.172Z,4.68
2022-11-22T01:05:35.067Z,4.00
2022-11-22T01:08:03.024Z,3.75
2022-11-22T01:10:31.256Z,5.18
2022-11-22T01:12:59.556Z,3.78
2022-11-22T01:15:27.529Z,3.85
2022-11-22T01:17:55.541Z,4.13
2022-11-22T01:20:25.202Z,4.20
2022-11-22T01:22:53.168Z,3.80
2022-11-22T01:25:21.185Z,3.75
2022-11-22T01:27:50.943Z,4.20
2022-11-22T01:30:19.274Z,3.80
2022-11-22T01:32:47.288Z,3.30
2022-11-22T01:35:15.356Z,3.55
2022-11-22T01:37:44.994Z,4.28
2022-11-22T01:40:13.211Z,2.92
2022-11-22T01:42:44.782Z,3.65
2022-11-22T01:45:43.131Z,3.08
2022-11-22T01:48:22.741Z,4.03
2022-11-22T01:50:54.772Z,3.05
2022-11-22T01:53:29.455Z,3.67
2022-11-22T01:56:00.186Z,3.03
2022-11-22T01:58:32.901Z,3.58
2022-11-22T02:01:01.791Z,3.45
2022-11-22T02:03:32.897Z,3.35
2022-11-22T02:06:01.095Z,3.25
2022-11-22T02:08:36.493Z,3.80
2022-11-22T02:11:05.187Z,3.45
2022-11-22T02:13:37.085Z,3.47
2022-11-22T02:16:05.639Z,3.03
2022-11-22T02:18:36.120Z,3.50
2022-11-22T02:21:04.833Z,3.90
2022-11-22T02:23:44.385Z,4.50
2022-11-22T02:26:15.065Z,4.95
2022-11-22T02:28:43.189Z,10.75
2022-11-22T02:31:31.088Z,3.65
2022-11-22T02:34:01.762Z,3.13
2022-11-22T02:36:31.324Z,4.55
2022-11-22T02:38:59.265Z,7.47
2022-11-22T02:41:29.052Z,6.10
2022-11-22T02:43:57.129Z,6.00
2022-11-22T02:46:25.177Z,4.30
2022-11-22T02:48:53.088Z,3.42
2022-11-22T02:51:21.515Z,3.65
2022-11-22T02:53:50.803Z,3.22
2022-11-22T02:56:19.015Z,3.30
2022-11-22T02:58:48.238Z,3.10
2022-11-22T03:01:16.220Z,3.20
2022-11-22T03:03:44.247Z,3.92
2022-11-22T03:06:12.158Z,4.20
2022-11-22T03:08:40.091Z,3.97
2022-11-22T03:11:08.022Z,4.13
2022-11-22T03:13:35.965Z,3.58
2022-11-22T03:16:05.709Z,3.60
2022-11-22T03:18:34.530Z,4.25
2022-11-22T03:21:03.747Z,3.15
2022-11-22T03:23:32.139Z,3.50
2022-11-22T03:26:00.137Z,3.65
2022-11-22T03:28:28.217Z,3.60
2022-11-22T03:30:56.155Z,3.80
2022-11-22T03:33:25.404Z,3.95
2022-11-22T03:35:56.989Z,3.85
2022-11-22T03:38:25.623Z,3.90
2022-11-22T03:40:53.657Z,3.92
2022-11-22T03:43:21.739Z,3.67
2022-11-22T03:45:50.207Z,3.83
2022-11-22T03:48:18.530Z,4.43
2022-11-22T03:50:48.012Z,3.70
2022-11-22T03:53:16.123Z,4.53
2022-11-22T03:55:44.310Z,4.32
2022-11-22T03:58:12.288Z,4.03
2022-11-22T04:00:40.186Z,4.70
2022-11-22T04:03:08.114Z,3.20
2022-11-22T04:05:36.065Z,3.72
2022-11-22T04:08:05.620Z,4.50
2022-11-22T04:10:33.571Z,4.05
2022-11-22T04:13:01.519Z,4.13
2022-11-22T04:15:28.485Z,4.43
2022-11-22T04:17:56.511Z,3.80
2022-11-22T04:20:43.749Z,4.13
2022-11-22T04:23:14.573Z,3.60
2022-11-22T04:25:44.408Z,4.90
2022-11-22T04:28:13.397Z,3.70
2022-11-22T04:30:59.455Z,4.60
2022-11-22T04:33:27.396Z,4.15
2022-11-22T04:35:55.725Z,3.75
2022-11-22T04:38:25.548Z,3.75
2022-11-22T04:40:53.600Z,5.03
2022-11-22T04:43:41.150Z,4.57
2022-11-22T04:46:09.166Z,4.70
2022-11-22T04:48:37.722Z,4.97
2022-11-22T04:51:24.042Z,4.40
2022-11-22T04:53:53.715Z,4.43
2022-11-22T04:56:21.637Z,4.88
2022-11-22T04:58:55.443Z,4.90
2022-11-22T05:01:23.581Z,5.22
2022-11-22T05:03:57.901Z,4.32
2022-11-22T05:06:26.027Z,4.07
2022-11-22T05:08:55.824Z,4.95
2022-11-22T05:11:23.746Z,4.90
2022-11-22T05:13:51.683Z,5.10
2022-11-22T05:16:20.606Z,4.80
2022-11-22T05:18:59.274Z,5.38
2022-11-22T05:21:28.713Z,4.70
2022-11-22T05:23:57.294Z,5.45
2022-11-22T05:26:28.313Z,4.43
2022-11-22T05:28:58.064Z,4.85
2022-11-22T05:31:28.227Z,5.10
2022-11-22T05:33:57.474Z,4.85
2022-11-22T05:36:25.977Z,5.32
2022-11-22T05:38:54.248Z,4.50
2022-11-22T05:41:23.540Z,4.75
2022-11-22T05:43:51.531Z,4.05
2022-11-22T05:46:24.787Z,4.82
2022-11-22T05:48:54.351Z,4.70
2022-11-22T05:51:27.928Z,4.20
2022-11-22T05:53:58.795Z,4.32
2022-11-22T05:56:28.083Z,3.70
2022-11-22T05:58:56.805Z,3.80
2022-11-22T06:01:25.738Z,4.38
2022-11-22T06:03:54.895Z,4.20
2022-11-22T06:06:24.025Z,4.10
2022-11-22T06:08:52.027Z,4.40
2022-11-22T06:11:21.856Z,4.20
2022-11-22T06:13:53.173Z,3.80
2022-11-22T06:16:21.191Z,4.00
2022-11-22T06:18:49.676Z,4.38
2022-11-22T06:21:19.650Z,4.07
2022-11-22T06:23:47.673Z,4.47
2022-11-22T06:26:18.843Z,4.80
2022-11-22T06:28:48.054Z,4.53
2022-11-22T06:31:19.092Z,5.10
2022-11-22T06:33:47.209Z,4.38
2022-11-22T06:36:17.804Z,4.82
2022-11-22T06:38:46.356Z,4.90
2022-11-22T06:41:16.388Z,4.25
2022-11-22T06:43:49.107Z,4.55
2022-11-22T06:46:19.931Z,4.43
2022-11-22T06:48:48.623Z,4.68
2022-11-22T06:51:18.507Z,5.40
2022-11-22T06:53:48.832Z,4.53
2022-11-22T06:56:19.156Z,5.00
2022-11-22T06:58:48.107Z,5.45
2022-11-22T07:01:19.294Z,6.60
2022-11-22T07:03:48.190Z,4.32
2022-11-22T07:06:17.738Z,4.70
2022-11-22T07:08:46.210Z,4.20
2022-11-22T07:11:16.439Z,4.22
2022-11-22T07:13:44.616Z,3.80
2022-11-22T07:16:15.074Z,3.70
2022-11-22T07:18:44.786Z,3.67
2022-11-22T07:21:14.195Z,3.85
2022-11-22T07:23:43.422Z,3.78
2022-11-22T07:26:12.215Z,4.38
2022-11-22T07:28:40.668Z,4.15
2022-11-22T07:31:11.133Z,3.50
2022-11-22T07:33:39.425Z,3.55
2022-11-22T07:36:11.563Z,3.65
2022-11-22T07:38:39.867Z,4.10
2022-11-22T07:41:09.113Z,3.47
2022-11-22T07:43:37.495Z,3.92
2022-11-22T07:46:07.884Z,3.42
2022-11-22T07:48:36.180Z,3.15
2022-11-22T07:51:06.116Z,4.00
2022-11-22T07:53:35.996Z,2.95
2022-11-22T07:56:04.165Z,3.53
2022-11-22T07:58:32.602Z,2.70
2022-11-22T08:01:06.159Z,3.30
2022-11-22T08:03:34.240Z,3.17
2022-11-22T08:06:03.057Z,3.35
2022-11-22T08:08:31.380Z,3.05
2022-11-22T08:11:00.827Z,3.65
2022-11-22T08:13:29.170Z,2.90
2022-11-22T08:16:05.097Z,2.72
2022-11-22T08:18:35.308Z,2.40
2022-11-22T08:21:07.944Z,4.05
2022-11-22T08:23:36.353Z,3.17
2022-11-22T08:26:07.276Z,3.23
2022-11-22T08:28:35.438Z,3.35
2022-11-22T08:31:05.670Z,3.50
2022-11-22T08:33:33.801Z,3.55
2022-11-22T08:36:02.183Z,3.33
2022-11-22T08:38:30.472Z,3.15
2022-11-22T08:40:58.485Z,2.53
2022-11-22T08:43:27.850Z,3.03
2022-11-22T08:45:57.488Z,2.75
2022-11-22T08:48:26.202Z,3.37
2022-11-22T08:50:55.223Z,3.17
2022-11-22T08:53:23.741Z,3.23
2022-11-22T08:55:52.044Z,3.50
2022-11-22T08:58:20.446Z,3.07
2022-11-22T09:00:49.783Z,2.80
2022-11-22T09:03:17.808Z,2.13
2022-11-22T09:08:36.392Z,3.05
2022-11-22T09:11:09.063Z,3.00
2022-11-22T09:13:37.564Z,3.58
2022-11-22T09:16:09.108Z,3.53
2022-11-22T09:18:37.357Z,5.20
2022-11-22T09:21:06.637Z,2.90
2022-11-22T09:23:35.296Z,3.07
2022-11-22T09:26:05.438Z,2.60
2022-11-22T09:28:34.223Z,2.05
2022-11-22T09:31:02.743Z,2.77
2022-11-22T09:33:32.987Z,2.90
2022-11-22T09:36:02.195Z,3.13
2022-11-22T09:38:32.666Z,2.53
2022-11-22T09:41:03.118Z,1.98
2022-11-22T09:43:46.228Z,2.40
2022-11-22T09:46:23.567Z,2.30
2022-11-22T09:49:23.880Z,2.57
2022-11-22T09:51:58.888Z,2.70
2022-11-22T09:54:32.865Z,3.53
2022-11-22T09:57:05.145Z,2.30
2022-11-22T09:59:38.466Z,2.10
2022-11-22T10:02:18.708Z,2.07
2022-11-22T10:04:55.687Z,2.37
2022-11-22T10:07:29.374Z,2.50
2022-11-22T10:10:04.889Z,2.50
2022-11-22T10:12:38.474Z,2.73
2022-11-22T10:15:16.916Z,2.40
2022-11-22T10:17:54.114Z,2.30
2022-11-22T10:20:25.576Z,1.80
2022-11-22T10:22:53.844Z,1.97
2022-11-22T10:25:23.648Z,2.37
2022-11-22T10:28:00.350Z,1.90
2022-11-22T10:30:33.710Z,1.63
2022-11-22T10:33:11.938Z,2.73
2022-11-22T10:36:01.881Z,3.07
2022-11-22T10:38:52.127Z,2.30
2022-11-22T10:41:36.519Z,1.80
2022-11-22T10:44:19.439Z,2.10
2022-11-22T10:47:00.673Z,1.80
2022-11-22T10:49:44.077Z,1.97
2022-11-22T10:52:21.052Z,2.50
2022-11-22T10:54:56.349Z,2.20
2022-11-22T10:57:31.243Z,1.80
2022-11-22T11:00:13.795Z,1.73
2022-11-22T11:03:05.814Z,2.00
2022-11-22T11:09:12.295Z,1.97
2022-11-22T11:11:28.368Z,1.73
2022-11-22T11:14:00.802Z,2.30
2022-11-22T11:16:33.920Z,2.10
2022-11-22T11:19:08.905Z,1.97
2022-11-22T11:21:37.596Z,2.10
2022-11-22T11:24:14.447Z,2.57
2022-11-22T11:26:44.651Z,1.67
2022-11-22T11:29:38.037Z,2.08
2022-11-22T11:32:11.991Z,1.77
2022-11-22T11:34:43.017Z,2.43
2022-11-22T11:37:22.989Z,2.07
2022-11-22T11:39:52.358Z,2.10
2022-11-22T11:42:31.883Z,2.00
2022-11-22T11:45:28.942Z,2.27
2022-11-22T11:47:57.035Z,2.07
2022-11-22T11:50:27.022Z,2.13
2022-11-22T11:52:57.188Z,2.40
2022-11-22T11:55:31.209Z,2.00
2022-11-22T11:57:59.439Z,1.43
2022-11-22T12:00:30.067Z,1.80
2022-11-22T12:03:00.794Z,2.47
2022-11-22T12:05:30.780Z,2.07
2022-11-22T12:07:59.155Z,2.13
2022-11-22T12:10:39.117Z,2.90
2022-11-22T12:13:14.776Z,2.80
2022-11-22T12:15:53.172Z,1.90
2022-11-22T12:18:34.279Z,2.70
2022-11-22T12:21:15.010Z,2.77
2022-11-22T12:23:51.023Z,1.83
2022-11-22T12:26:21.583Z,1.67
2022-11-22T12:28:50.446Z,2.33
2022-11-22T12:31:28.431Z,2.73
2022-11-22T12:33:59.780Z,2.00
2022-11-22T12:36:32.870Z,2.40
2022-11-22T12:39:04.310Z,1.87
2022-11-22T12:41:35.608Z,2.00
2022-11-22T12:44:06.225Z,2.00
2022-11-22T12:46:40.273Z,2.13
2022-11-22T12:49:16.404Z,3.37
2022-11-22T12:51:48.390Z,1.77
2022-11-22T12:54:20.847Z,1.97
2022-11-22T12:56:54.614Z,1.90
2022-11-22T12:59:34.382Z,1.70
2022-11-22T13:02:12.577Z,1.80
2022-11-22T13:04:50.040Z,1.83
2022-11-22T13:07:23.224Z,2.30
2022-11-22T13:09:56.617Z,1.70
2022-11-22T13:12:30.801Z,2.03
2022-11-22T13:15:00.504Z,2.10
2022-11-22T13:17:34.194Z,2.40
2022-11-22T13:20:07.937Z,1.63
2022-11-22T13:22:45.687Z,1.80
2022-11-22T13:25:31.140Z,1.70
2022-11-22T13:28:02.496Z,1.73
2022-11-22T13:30:31.715Z,2.50
2022-11-22T13:33:01.795Z,1.93
2022-11-22T13:35:32.116Z,2.23
2022-11-22T13:38:02.987Z,2.43
2022-11-22T13:40:34.935Z,1.77
2022-11-22T13:43:49.865Z,1.80
2022-11-22T13:46:56.833Z,1.60
2022-11-22T13:49:38.251Z,1.87
2022-11-22T13:52:50.207Z,2.47
2022-11-22T13:55:33.821Z,2.43
2022-11-22T13:58:52.168Z,2.03
2022-11-22T14:01:59.109Z,1.90
2022-11-22T14:04:39.484Z,1.90
2022-11-22T14:07:24.434Z,2.13
2022-11-22T14:09:57.062Z,1.70
2022-11-22T14:13:10.376Z,1.67
2022-11-22T14:15:51.628Z,1.90
2022-11-22T14:18:58.201Z,1.67
2022-11-22T14:21:47.359Z,1.37
2022-11-22T14:24:27.271Z,1.87
2022-11-22T14:27:05.241Z,2.67
2022-11-22T14:30:18.229Z,2.43
2022-11-22T14:33:02.758Z,2.20
2022-11-22T14:35:35.335Z,3.07
2022-11-22T14:38:40.205Z,2.90
2022-11-22T14:41:53.104Z,2.70
2022-11-22T14:44:28.971Z,2.57
2022-11-22T14:47:02.766Z,2.40
2022-11-22T14:49:39.687Z,3.40
2022-11-22T14:52:19.256Z,2.87
2022-11-22T14:54:50.351Z,9.67
2022-11-22T14:57:23.409Z,10.33
2022-11-22T15:00:13.469Z,3.50
2022-11-22T15:03:10.472Z,3.30
2022-11-22T15:09:17.449Z,6.10
2022-11-22T15:09:20.506Z,9.20
2022-11-22T15:11:59.653Z,12.53
2022-11-22T15:59:11.268Z,8.35
2022-11-22T16:01:41.753Z,8.05
2022-11-22T16:04:21.445Z,9.02
2022-11-22T16:06:50.067Z,14.40
2022-11-22T16:09:26.034Z,10.38
2022-11-22T16:12:00.927Z,10.67
2022-11-22T16:14:47.757Z,24.23
2022-11-22T16:17:25.255Z,11.70
2022-11-22T16:19:53.627Z,12.13
2022-11-22T16:22:30.348Z,7.50
2022-11-22T16:25:31.408Z,7.23
2022-11-22T16:28:02.056Z,7.10
2022-11-22T16:30:30.075Z,8.47
2022-11-22T16:32:58.994Z,14.32
2022-11-22T16:35:30.224Z,11.93
2022-11-22T16:37:58.248Z,23.77
2022-11-22T16:40:27.501Z,26.03
2022-11-22T16:42:55.456Z,22.50
2022-11-22T16:45:23.851Z,23.43
2022-11-22T16:48:03.875Z,28.00
2022-11-22T16:50:42.584Z,34.40
2022-11-22T16:53:13.066Z,29.67
2022-11-22T16:55:42.751Z,30.10
2022-11-22T16:58:21.418Z,21.13
2022-11-22T17:00:50.617Z,16.13
2022-11-22T17:03:21.321Z,15.07
2022-11-22T17:05:49.847Z,13.60
2022-11-22T17:08:19.671Z,10.60
2022-11-22T17:10:51.224Z,18.73
2022-11-22T17:13:21.679Z,11.90
2022-11-22T17:15:49.814Z,7.70
2022-11-22T17:18:17.887Z,7.27
2022-11-22T17:20:45.991Z,5.37
2022-11-22T17:23:19.531Z,9.30
2022-11-22T17:25:48.870Z,5.85
2022-11-22T17:28:16.741Z,4.57
2022-11-22T17:30:44.653Z,4.77
2022-11-22T17:33:12.667Z,4.37
2022-11-22T17:35:40.819Z,4.40
2022-11-22T17:38:11.174Z,4.25
2022-11-22T17:40:39.174Z,9.40
2022-11-22T17:43:08.531Z,7.13
2022-11-22T17:45:42.397Z,11.23
2022-11-22T17:48:10.727Z,9.33
2022-11-22T17:50:39.069Z,7.40
2022-11-22T17:53:07.112Z,7.57
2022-11-22T17:55:54.645Z,4.27
2022-11-22T17:58:24.262Z,4.47
2022-11-22T18:00:52.337Z,4.68
2022-11-22T18:03:20.305Z,2.37
2022-11-22T18:05:48.366Z,3.90
2022-11-22T18:08:16.318Z,4.33
2022-11-22T18:10:44.325Z,3.20
2022-11-22T18:13:21.642Z,5.43
2022-11-22T18:15:55.371Z,10.23
2022-11-22T18:18:48.989Z,9.50
2022-11-22T18:21:17.202Z,5.70
2022-11-22T18:23:46.168Z,4.23
2022-11-22T18:26:38.126Z,2.80
2022-11-22T18:29:41.073Z,3.13
2022-11-22T18:31:53.247Z,2.10
2022-11-22T18:34:21.844Z,2.57
2022-11-22T18:37:05.490Z,2.10
2022-11-22T18:39:36.494Z,3.00
2022-11-22T18:42:06.303Z,1.97
2022-11-22T18:44:34.658Z,1.60
2022-11-22T18:47:03.970Z,1.57
2022-11-22T18:49:32.425Z,1.43
2022-11-22T18:52:00.834Z,1.70
2022-11-22T18:54:29.157Z,1.87
2022-11-22T18:56:57.575Z,1.70
2022-11-22T18:59:25.865Z,1.90
2022-11-22T19:01:54.145Z,1.37
2022-11-22T19:04:23.393Z,1.77
2022-11-22T19:06:51.670Z,1.87
2022-11-22T19:09:19.648Z,1.60
2022-11-22T19:11:47.656Z,1.70
2022-11-22T19:14:15.787Z,1.53
2022-11-22T19:16:43.780Z,1.60
2022-11-22T19:19:12.914Z,2.10
2022-11-22T19:21:42.195Z,1.70
2022-11-22T19:24:10.490Z,1.90
2022-11-22T19:26:38.435Z,1.80
2022-11-22T19:29:06.418Z,1.77
2022-11-22T19:31:34.412Z,1.63
2022-11-22T19:34:02.347Z,1.50
2022-11-22T19:36:33.814Z,1.55
2022-11-22T19:39:04.579Z,1.45
2022-11-22T19:41:33.000Z,1.60
2022-11-22T19:44:01.163Z,1.60
2022-11-22T19:46:30.059Z,1.77
2022-11-22T19:48:59.419Z,1.50
2022-11-22T19:51:28.455Z,1.77
2022-11-22T19:53:59.415Z,1.73
2022-11-22T19:56:31.005Z,1.63
2022-11-22T19:59:00.658Z,1.63
2022-11-22T20:01:31.155Z,1.30
2022-11-22T20:04:01.299Z,1.50
2022-11-22T20:06:30.168Z,1.67
2022-11-22T20:09:02.387Z,1.60
2022-11-22T20:11:31.776Z,1.23
2022-11-22T20:13:59.794Z,1.50
2022-11-22T20:16:28.971Z,1.52
2022-11-22T20:18:57.739Z,1.30
2022-11-22T20:21:26.653Z,1.63
2022-11-22T20:23:55.063Z,1.50
2022-11-22T20:26:23.885Z,1.57
2022-11-22T20:28:57.567Z,1.83
2022-11-22T20:31:27.535Z,1.67
2022-11-22T20:33:56.728Z,1.50
2022-11-22T20:36:26.624Z,2.80
2022-11-22T20:38:55.086Z,2.00
2022-11-22T20:41:24.860Z,1.63
2022-11-22T20:43:53.187Z,1.90
2022-11-22T20:46:24.548Z,1.50
2022-11-22T20:48:53.760Z,1.70
2022-11-22T20:51:23.931Z,1.70
2022-11-22T20:53:52.486Z,1.90
2022-11-22T20:56:21.140Z,1.80
2022-11-22T20:58:49.596Z,2.23
2022-11-22T21:01:19.312Z,1.60
2022-11-22T21:03:49.390Z,2.07
2022-11-22T21:06:19.187Z,1.90
2022-11-22T21:08:47.551Z,1.73
2022-11-22T21:11:17.245Z,2.15
2022-11-22T21:13:47.142Z,1.70
2022-11-22T21:16:23.270Z,1.47
2022-11-22T21:18:54.483Z,1.50
2022-11-22T21:21:23.978Z,1.75
2022-11-22T21:23:53.948Z,2.08
2022-11-22T21:26:23.871Z,1.60
2022-11-22T21:28:52.583Z,1.70
2022-11-22T21:31:21.680Z,2.07
2022-11-22T21:33:50.550Z,2.00
2022-11-22T21:36:20.578Z,1.77
2022-11-22T21:38:48.962Z,2.00
2022-11-22T21:44:06.682Z,2.20
2022-11-22T21:46:34.857Z,1.97
2022-11-22T21:49:03.001Z,2.10
2022-11-22T21:51:32.479Z,2.92
2022-11-22T21:54:01.379Z,2.47
2022-11-22T21:56:30.340Z,2.60
2022-11-22T21:58:58.518Z,3.00
2022-11-22T22:01:26.789Z,3.28
2022-11-22T22:03:55.925Z,2.67
2022-11-22T22:06:25.002Z,13.73
2022-11-22T22:08:55.262Z,5.53
2022-11-22T22:11:26.960Z,3.05
2022-11-22T22:13:55.308Z,5.00
2022-11-22T22:16:25.825Z,6.80
2022-11-22T22:18:54.459Z,8.17
2022-11-22T22:21:22.478Z,4.67
2022-11-22T22:23:50.558Z,2.92
2022-11-22T22:26:20.416Z,2.60
2022-11-22T22:28:48.431Z,2.55
2022-11-22T22:31:21.467Z,2.25
2022-11-22T22:33:51.483Z,2.42
2022-11-22T22:36:19.655Z,2.47
2022-11-22T22:38:47.590Z,3.00
2022-11-22T22:41:15.634Z,2.30
2022-11-22T22:43:48.287Z,2.30
2022-11-22T22:46:18.090Z,3.80
2022-11-22T22:48:46.616Z,2.72
2022-11-22T22:51:16.641Z,2.40
2022-11-22T22:53:45.460Z,2.97
2022-11-22T22:56:14.732Z,3.28
2022-11-22T22:58:44.671Z,3.17
2022-11-22T23:01:17.316Z,2.55
2022-11-22T23:03:49.329Z,2.70
2022-11-22T23:06:17.947Z,2.95
2022-11-22T23:08:47.517Z,2.75
2022-11-22T23:11:17.600Z,3.08
2022-11-22T23:13:47.150Z,3.45
2022-11-22T23:16:15.981Z,2.63
2022-11-22T23:18:45.535Z,2.83
2022-11-22T23:21:15.883Z,3.05
2022-11-22T23:23:43.949Z,2.55
2022-11-22T23:26:13.448Z,2.97
2022-11-22T23:28:41.818Z,3.17
2022-11-22T23:31:14.004Z,5.00
2022-11-22T23:33:42.739Z,4.13
2022-11-22T23:36:12.855Z,3.20
2022-11-22T23:38:41.518Z,5.93
2022-11-22T23:41:12.546Z,6.70
2022-11-22T23:43:40.511Z,5.70
2022-11-22T23:46:15.827Z,4.15
2022-11-22T23:48:44.351Z,3.72
2022-11-22T23:51:12.854Z,2.75
2022-11-22T23:53:40.976Z,2.50
2022-11-22T23:56:11.439Z,1.90
2022-11-22T23:58:39.577Z,2.55
